Time,TemperatureF,DewpointF,PressureIn,WindDirection,WindDirectionDegrees,WindSpeedMPH,WindSpeedGustMPH,Humidity,HourlyPrecipIn,Conditions,Clouds,dailyrainin,SoftwareType,DateUTC
2013-05-25 00:02:00,50.0,40.6,30.02,SSW,202,0.0,0.0,70,0.00,,,0.00,WUHU21623XXSP,2013-05-25 07:02:00,
2013-05-25 00:07:00,49.8,40.5,30.02,SSW,202,0.0,0.0,70,0.00,,,0.00,WUHU21623XXSP,2013-05-25 07:07:00,
2013-05-25 00:12:00,49.8,40.5,30.01,SW,225,0.0,0.0,70,0.00,,,0.00,WUHU21623XXSP,2013-05-25 07:12:00,
2013-05-25 00:17:00,49.8,40.5,30.02,SSE,157,0.0,0.0,70,0.00,,,0.00,WUHU21623XXSP,2013-05-25 07:17:00,
2013-05-25 00:22:00,49.8,40.5,30.02,SE,135,0.0,0.0,70,0.00,,,0.00,WUHU21623XXSP,2013-05-25 07:22:00,
2013-05-25 00:27:00,49.8,40.5,30.01,East,90,0.0,0.0,70,0.00,,,0.00,WUHU21623XXSP,2013-05-25 07:27:00,
2013-05-25 00:32:00,49.8,40.8,30.01,South,180,0.0,0.0,71,0.00,,,0.00,WUHU21623XXSP,2013-05-25 07:32:00,
2013-05-25 00:37:00,49.8,40.8,30.01,North,0,0.0,0.0,71,0.00,,,0.00,WUHU21623XXSP,2013-05-25 07:37:00,
2013-05-25 00:42:00,49.8,40.8,30.01,North,0,0.0,0.0,71,0.00,,,0.00,WUHU21623XXSP,2013-05-25 07:42:00,
2013-05-25 00:47:00,49.8,40.8,30.01,NNW,337,0.2,0.2,71,0.00,,,0.00,WUHU21623XXSP,2013-05-25 07:47:00,
2013-05-25 00:55:00,49.8,40.8,30.01,SE,135,0.0,0.2,71,0.00,,,0.00,WUHU21623XXSP,2013-05-25 07:55:00,
2013-05-25 01:00:00,49.8,40.8,30.02,South,180,0.0,0.0,71,0.00,,,0.00,WUHU21623XXSP,2013-05-25 08:00:00,
2013-05-25 01:05:00,49.8,40.8,30.02,North,0,0.0,0.0,71,0.00,,,0.00,WUHU21623XXSP,2013-05-25 08:05:00,
2013-05-25 01:10:00,49.8,40.8,30.01,North,0,0.0,0.0,71,0.00,,,0.00,WUHU21623XXSP,2013-05-25 08:10:00,
2013-05-25 01:15:00,49.8,41.1,30.02,SW,225,0.0,0.0,72,0.00,,,0.00,WUHU21623XXSP,2013-05-25 08:15:00,
2013-05-25 01:20:00,49.6,41.0,30.02,SW,225,0.0,0.0,72,0.00,,,0.00,WUHU21623XXSP,2013-05-25 08:20:00,
2013-05-25 01:25:00,49.6,41.0,30.01,SSW,202,0.0,0.0,72,0.00,,,0.00,WUHU21623XXSP,2013-05-25 08:25:00,
2013-05-25 01:30:00,49.6,41.0,30.02,SW,225,0.0,0.0,72,0.00,,,0.00,WUHU21623XXSP,2013-05-25 08:30:00,
2013-05-25 01:35:00,49.6,41.3,30.02,SW,225,0.0,0.0,73,0.00,,,0.00,WUHU21623XXSP,2013-05-25 08:35:00,
2013-05-25 01:40:00,49.5,41.1,30.02,SW,225,0.0,0.0,73,0.00,,,0.00,WUHU21623XXSP,2013-05-25 08:40:00,
2013-05-25 01:45:00,49.5,41.1,30.01,South,180,0.0,0.0,73,0.00,,,0.00,WUHU21623XXSP,2013-05-25 08:45:00,
2013-05-25 01:50:00,49.3,40.9,30.02,South,180,0.0,0.0,73,0.00,,,0.00,WUHU21623XXSP,2013-05-25 08:50:00,
2013-05-25 01:55:00,49.3,40.9,30.02,SW,225,0.0,0.0,73,0.00,,,0.00,WUHU21623XXSP,2013-05-25 08:55:00,
2013-05-25 02:00:00,49.3,40.9,30.01,SW,225,0.0,0.0,73,0.00,,,0.00,WUHU21623XXSP,2013-05-25 09:00:00,
2013-05-25 02:05:00,49.3,41.3,30.02,SW,225,0.0,0.0,74,0.00,,,0.00,WUHU21623XXSP,2013-05-25 09:05:00,
2013-05-25 02:12:00,49.1,41.1,30.02,North,0,0.0,0.0,74,0.00,,,0.00,WUHU21623XXSP,2013-05-25 09:12:00,
2013-05-25 02:17:00,49.1,41.1,30.02,North,0,0.0,0.0,74,0.00,,,0.00,WUHU21623XXSP,2013-05-25 09:17:00,
2013-05-25 02:22:00,49.1,41.1,30.01,North,0,0.0,0.0,74,0.00,,,0.00,WUHU21623XXSP,2013-05-25 09:22:00,
2013-05-25 02:27:00,49.1,41.5,30.01,SSW,202,0.0,0.0,75,0.00,,,0.00,WUHU21623XXSP,2013-05-25 09:27:00,
2013-05-25 02:32:00,48.9,41.3,30.02,SSW,202,0.0,0.0,75,0.00,,,0.00,WUHU21623XXSP,2013-05-25 09:32:00,
2013-05-25 02:37:00,48.9,41.3,30.02,SSW,202,0.0,0.0,75,0.00,,,0.00,WUHU21623XXSP,2013-05-25 09:37:00,
2013-05-25 02:44:00,48.9,41.3,30.01,SW,225,0.0,0.0,75,0.00,,,0.00,WUHU21623XXSP,2013-05-25 09:44:00,
2013-05-25 02:49:00,48.7,41.1,30.01,SW,225,0.0,0.0,75,0.00,,,0.00,WUHU21623XXSP,2013-05-25 09:49:00,
2013-05-25 02:54:00,48.7,41.1,30.02,SW,225,0.0,0.0,75,0.00,,,0.00,WUHU21623XXSP,2013-05-25 09:54:00,
2013-05-25 02:59:00,48.7,41.1,30.02,SW,225,0.0,0.0,75,0.00,,,0.00,WUHU21623XXSP,2013-05-25 09:59:00,
2013-05-25 03:04:00,48.7,41.4,30.01,SSW,202,0.0,0.0,76,0.00,,,0.00,WUHU21623XXSP,2013-05-25 10:04:00,
2013-05-25 03:09:00,48.7,41.4,30.01,SSW,202,0.0,0.0,76,0.00,,,0.00,WUHU21623XXSP,2013-05-25 10:09:00,
2013-05-25 03:14:00,48.7,41.4,30.01,SSW,202,0.0,0.0,76,0.00,,,0.00,WUHU21623XXSP,2013-05-25 10:14:00,
2013-05-25 03:19:00,48.7,41.4,30.02,South,180,0.0,0.0,76,0.00,,,0.00,WUHU21623XXSP,2013-05-25 10:19:00,
2013-05-25 03:25:00,48.6,41.3,30.01,South,180,0.0,0.0,76,0.00,,,0.00,WUHU21623XXSP,2013-05-25 10:25:00,
2013-05-25 03:30:00,48.4,41.1,30.01,South,180,0.0,0.0,76,0.00,,,0.00,WUHU21623XXSP,2013-05-25 10:30:00,
2013-05-25 03:36:00,48.4,41.1,30.01,South,180,0.0,0.0,76,0.00,,,0.00,WUHU21623XXSP,2013-05-25 10:36:00,
2013-05-25 03:41:00,48.4,41.4,30.01,South,180,0.0,0.0,77,0.00,,,0.00,WUHU21623XXSP,2013-05-25 10:41:00,
2013-05-25 03:46:00,48.2,41.2,30.01,South,180,0.0,0.0,77,0.00,,,0.00,WUHU21623XXSP,2013-05-25 10:46:00,
2013-05-25 03:57:00,48.2,41.2,30.01,South,180,0.0,0.0,77,0.00,,,0.00,WUHU21623XXSP,2013-05-25 10:57:00,
2013-05-25 04:02:00,48.2,41.2,30.01,South,180,0.0,0.0,77,0.00,,,0.00,WUHU21623XXSP,2013-05-25 11:02:00,
2013-05-25 04:07:00,48.0,41.1,30.01,North,0,0.0,0.0,77,0.00,,,0.00,WUHU21623XXSP,2013-05-25 11:07:00,
2013-05-25 04:12:00,48.2,41.2,30.01,North,0,0.0,0.0,77,0.00,,,0.00,WUHU21623XXSP,2013-05-25 11:12:00,
2013-05-25 04:17:00,48.2,41.2,30.01,North,0,0.0,0.0,77,0.00,,,0.00,WUHU21623XXSP,2013-05-25 11:17:00,
2013-05-25 04:22:00,48.2,41.2,30.01,SE,135,0.0,0.0,77,0.00,,,0.00,WUHU21623XXSP,2013-05-25 11:22:00,
2013-05-25 04:27:00,48.0,41.1,30.02,SE,135,0.0,0.0,77,0.00,,,0.00,WUHU21623XXSP,2013-05-25 11:27:00,
2013-05-25 04:32:00,48.0,41.1,30.01,SE,135,0.0,0.0,77,0.00,,,0.00,WUHU21623XXSP,2013-05-25 11:32:00,
2013-05-25 04:37:00,48.0,41.1,30.01,SE,135,0.0,0.0,77,0.00,,,0.00,WUHU21623XXSP,2013-05-25 11:37:00,
2013-05-25 04:42:00,48.0,41.1,30.01,SE,135,0.0,0.0,77,0.00,,,0.00,WUHU21623XXSP,2013-05-25 11:42:00,
2013-05-25 04:47:00,48.0,41.1,30.02,SE,135,0.0,0.0,77,0.00,,,0.00,WUHU21623XXSP,2013-05-25 11:47:00,
2013-05-25 04:55:00,48.0,41.4,30.01,SW,225,0.0,0.0,78,0.00,,,0.00,WUHU21623XXSP,2013-05-25 11:55:00,
2013-05-25 05:00:00,47.8,41.3,30.01,South,180,0.0,0.0,78,0.00,,,0.00,WUHU21623XXSP,2013-05-25 12:00:00,
2013-05-25 05:05:00,47.8,41.3,30.01,South,180,0.0,0.0,78,0.00,,,0.00,WUHU21623XXSP,2013-05-25 12:05:00,
2013-05-25 05:10:00,47.8,41.3,30.02,SSE,157,0.0,0.0,78,0.00,,,0.00,WUHU21623XXSP,2013-05-25 12:10:00,
2013-05-25 05:15:00,48.0,41.4,30.02,SSE,157,0.0,0.0,78,0.00,,,0.00,WUHU21623XXSP,2013-05-25 12:15:00,
2013-05-25 05:20:00,47.8,41.3,30.02,NE,45,0.0,0.0,78,0.00,,,0.00,WUHU21623XXSP,2013-05-25 12:20:00,
2013-05-25 05:25:00,47.8,41.3,30.01,NE,45,0.0,0.0,78,0.00,,,0.00,WUHU21623XXSP,2013-05-25 12:25:00,
2013-05-25 05:30:00,47.8,41.3,30.02,NE,45,0.0,0.0,78,0.00,,,0.00,WUHU21623XXSP,2013-05-25 12:30:00,
2013-05-25 05:35:00,47.8,41.3,30.02,North,0,0.0,0.0,78,0.00,,,0.00,WUHU21623XXSP,2013-05-25 12:35:00,
2013-05-25 05:40:00,47.7,41.1,30.02,North,0,0.0,0.0,78,0.00,,,0.00,WUHU21623XXSP,2013-05-25 12:40:00,
2013-05-25 05:45:00,47.3,40.9,30.02,NE,45,0.0,0.0,78,0.00,,,0.00,WUHU21623XXSP,2013-05-25 12:45:00,
2013-05-25 05:50:00,47.1,40.6,30.02,NE,45,0.0,0.0,78,0.00,,,0.00,WUHU21623XXSP,2013-05-25 12:50:00,
2013-05-25 05:55:00,47.1,40.6,30.02,NE,45,0.0,0.0,78,0.00,,,0.00,WUHU21623XXSP,2013-05-25 12:55:00,
2013-05-25 06:00:00,46.9,40.8,30.02,NE,45,0.0,0.0,79,0.00,,,0.00,WUHU21623XXSP,2013-05-25 13:00:00,
2013-05-25 06:05:00,46.9,40.8,30.03,NE,45,0.0,0.0,79,0.00,,,0.00,WUHU21623XXSP,2013-05-25 13:05:00,
2013-05-25 06:10:00,46.9,40.8,30.03,NE,45,0.0,0.0,79,0.00,,,0.00,WUHU21623XXSP,2013-05-25 13:10:00,
2013-05-25 06:15:00,46.9,41.1,30.03,NE,45,0.0,0.0,80,0.00,,,0.00,WUHU21623XXSP,2013-05-25 13:15:00,
2013-05-25 06:20:00,47.1,41.3,30.03,NE,45,0.0,0.0,80,0.00,,,0.00,WUHU21623XXSP,2013-05-25 13:20:00,
2013-05-25 06:25:00,47.1,41.3,30.03,NE,45,0.0,0.0,80,0.00,,,0.00,WUHU21623XXSP,2013-05-25 13:25:00,
2013-05-25 06:30:00,47.3,41.5,30.03,NE,45,0.0,0.0,80,0.00,,,0.00,WUHU21623XXSP,2013-05-25 13:30:00,
2013-05-25 06:35:00,47.5,41.6,30.03,NE,45,0.0,0.0,80,0.00,,,0.00,WUHU21623XXSP,2013-05-25 13:35:00,
2013-05-25 06:40:00,47.7,41.8,30.03,NE,45,0.0,0.0,80,0.00,,,0.00,WUHU21623XXSP,2013-05-25 13:40:00,
2013-05-25 06:45:00,48.0,42.1,30.03,NE,45,0.0,0.0,80,0.00,,,0.00,WUHU21623XXSP,2013-05-25 13:45:00,
2013-05-25 06:50:00,48.4,42.4,30.03,NE,45,0.0,0.0,80,0.00,,,0.00,WUHU21623XXSP,2013-05-25 13:50:00,
2013-05-25 06:55:00,49.1,42.6,30.04,NE,45,0.0,0.0,80,0.00,,,0.00,WUHU21623XXSP,2013-05-25 13:55:00,
2013-05-25 07:00:00,49.8,43.5,30.03,NE,45,0.0,0.0,79,0.00,,,0.00,WUHU21623XXSP,2013-05-25 14:00:00,
2013-05-25 07:05:00,50.2,43.5,30.03,North,0,0.0,0.0,79,0.00,,,0.00,WUHU21623XXSP,2013-05-25 14:05:00,
2013-05-25 07:10:00,51.1,44.8,30.03,North,0,0.0,0.0,79,0.00,,,0.00,WUHU21623XXSP,2013-05-25 14:10:00,
2013-05-25 07:15:00,52.2,44.8,30.03,NNE,22,1.6,1.6,76,0.00,,,0.00,WUHU21623XXSP,2013-05-25 14:15:00,
2013-05-25 07:20:00,52.9,45.2,30.03,NNE,22,0.7,1.6,75,0.00,,,0.00,WUHU21623XXSP,2013-05-25 14:20:00,
2013-05-25 07:25:00,53.2,45.2,30.04,NNE,22,0.0,0.7,74,0.00,,,0.00,WUHU21623XXSP,2013-05-25 14:25:00,
2013-05-25 07:30:00,53.8,45.3,30.04,NNE,22,0.0,0.0,73,0.00,,,0.00,WUHU21623XXSP,2013-05-25 14:30:00,
2013-05-25 07:35:00,54.3,45.3,30.04,NNE,22,0.7,0.7,72,0.00,,,0.00,WUHU21623XXSP,2013-05-25 14:35:00,
2013-05-25 07:40:00,54.7,45.5,30.04,NNE,22,0.0,0.7,71,0.00,,,0.00,WUHU21623XXSP,2013-05-25 14:40:00,
2013-05-25 07:45:00,54.7,45.1,30.03,NNE,22,0.0,0.0,70,0.00,,,0.00,WUHU21623XXSP,2013-05-25 14:45:00,
2013-05-25 07:50:00,55.0,45.5,30.03,NNE,22,2.2,2.2,70,0.00,,,0.00,WUHU21623XXSP,2013-05-25 14:50:00,
2013-05-25 07:55:00,55.2,45.3,30.03,NNE,22,1.3,2.2,69,0.00,,,0.00,WUHU21623XXSP,2013-05-25 14:55:00,
2013-05-25 08:00:00,55.6,45.6,30.04,SSE,157,2.9,2.9,69,0.00,,,0.00,WUHU21623XXSP,2013-05-25 15:00:00,
2013-05-25 08:06:00,56.3,45.4,30.03,North,0,0.0,0.0,67,0.00,,,0.00,WUHU21623XXSP,2013-05-25 15:06:00,
2013-05-25 08:11:00,56.5,45.6,30.03,North,0,0.0,0.0,67,0.00,,,0.00,WUHU21623XXSP,2013-05-25 15:11:00,
2013-05-25 08:16:00,57.0,45.7,30.04,North,0,0.0,0.0,66,0.00,,,0.00,WUHU21623XXSP,2013-05-25 15:16:00,
2013-05-25 08:21:00,57.4,45.7,30.03,SE,135,0.0,0.0,65,0.00,,,0.00,WUHU21623XXSP,2013-05-25 15:21:00,
2013-05-25 08:26:00,57.6,45.8,30.03,SE,135,0.0,0.0,65,0.00,,,0.00,WUHU21623XXSP,2013-05-25 15:26:00,
2013-05-25 08:31:00,57.9,45.8,30.03,SSE,157,0.7,0.7,64,0.00,,,0.00,WUHU21623XXSP,2013-05-25 15:31:00,
2013-05-25 08:40:00,58.6,45.6,30.03,SSW,202,0.0,0.0,62,0.00,,,0.00,WUHU21623XXSP,2013-05-25 15:40:00,
2013-05-25 08:45:00,58.8,45.8,30.03,South,180,0.9,0.9,62,0.00,,,0.00,WUHU21623XXSP,2013-05-25 15:45:00,
2013-05-25 08:51:00,59.9,46.5,30.03,SSE,157,0.0,0.9,61,0.00,,,0.00,WUHU21623XXSP,2013-05-25 15:51:00,
2013-05-25 08:56:00,60.6,46.0,30.03,SSW,202,3.8,3.8,60,0.00,,,0.00,WUHU21623XXSP,2013-05-25 15:56:00,
2013-05-25 09:01:00,61.2,46.8,30.03,SSW,202,1.3,3.8,59,0.00,,,0.00,WUHU21623XXSP,2013-05-25 16:01:00,
2013-05-25 09:06:00,61.5,46.6,30.03,SSW,202,3.6,3.6,58,0.00,,,0.00,WUHU21623XXSP,2013-05-25 16:06:00,
2013-05-25 09:11:00,62.2,46.8,30.03,SW,225,0.0,3.6,57,0.00,,,0.00,WUHU21623XXSP,2013-05-25 16:11:00,
2013-05-25 09:16:00,62.4,46.5,30.03,South,180,2.7,2.7,56,0.00,,,0.00,WUHU21623XXSP,2013-05-25 16:16:00,
2013-05-25 09:21:00,63.0,46.9,30.04,SSW,202,1.3,2.7,56,0.00,,,0.00,WUHU21623XXSP,2013-05-25 16:21:00,
2013-05-25 09:26:00,63.3,46.8,30.03,South,180,2.5,2.5,55,0.00,,,0.00,WUHU21623XXSP,2013-05-25 16:26:00,
2013-05-25 09:31:00,63.7,47.1,30.04,SSE,157,0.0,2.5,55,0.00,,,0.00,WUHU21623XXSP,2013-05-25 16:31:00,
2013-05-25 09:36:00,64.2,47.1,30.03,North,0,0.0,0.0,54,0.00,,,0.00,WUHU21623XXSP,2013-05-25 16:36:00,
2013-05-25 09:41:00,64.9,47.3,30.03,North,0,0.0,0.0,53,0.00,,,0.00,WUHU21623XXSP,2013-05-25 16:41:00,
2013-05-25 09:46:00,65.3,47.2,30.03,North,0,0.0,0.0,52,0.00,,,0.00,WUHU21623XXSP,2013-05-25 16:46:00,
2013-05-25 09:51:00,65.7,47.6,30.03,SE,135,3.1,3.1,52,0.00,,,0.00,WUHU21623XXSP,2013-05-25 16:51:00,
2013-05-25 09:56:00,66.0,46.9,30.03,SE,135,0.4,3.1,50,0.00,,,0.00,WUHU21623XXSP,2013-05-25 16:56:00,
2013-05-25 10:01:00,66.2,47.1,30.04,SSE,157,4.5,4.5,50,0.00,,,0.00,WUHU21623XXSP,2013-05-25 17:01:00,
2013-05-25 10:06:00,66.7,47.0,30.03,WSW,247,2.9,4.5,49,0.00,,,0.00,WUHU21623XXSP,2013-05-25 17:06:00,
2013-05-25 10:11:00,67.6,47.5,30.03,SSE,157,0.0,2.9,49,0.00,,,0.00,WUHU21623XXSP,2013-05-25 17:11:00,
2013-05-25 10:16:00,67.8,47.4,30.03,South,180,0.0,0.0,48,0.00,,,0.00,WUHU21623XXSP,2013-05-25 17:16:00,
2013-05-25 10:21:00,68.4,47.3,30.03,SE,135,0.0,0.0,47,0.00,,,0.00,WUHU21623XXSP,2013-05-25 17:21:00,
2013-05-25 10:26:00,68.5,46.9,30.03,SSE,157,3.8,3.8,46,0.00,,,0.00,WUHU21623XXSP,2013-05-25 17:26:00,
2013-05-25 10:31:00,68.7,47.0,30.04,SE,135,0.0,3.8,46,0.00,,,0.00,WUHU21623XXSP,2013-05-25 17:31:00,
2013-05-25 10:36:00,69.3,46.9,30.03,SW,225,0.0,0.0,45,0.00,,,0.00,WUHU21623XXSP,2013-05-25 17:36:00,
2013-05-25 10:41:00,69.6,47.2,30.03,SSE,157,0.0,0.0,45,0.00,,,0.00,WUHU21623XXSP,2013-05-25 17:41:00,
2013-05-25 10:46:00,69.6,46.6,30.04,SSW,202,0.0,0.0,44,0.00,,,0.00,WUHU21623XXSP,2013-05-25 17:46:00,
2013-05-25 10:51:00,70.0,47.0,30.04,SSE,157,0.0,0.0,44,0.00,,,0.00,WUHU21623XXSP,2013-05-25 17:51:00,
2013-05-25 10:56:00,70.3,46.7,30.04,North,0,0.0,0.0,43,0.00,,,0.00,WUHU21623XXSP,2013-05-25 17:56:00,
2013-05-25 11:01:00,70.5,46.9,30.04,South,180,0.0,0.0,43,0.00,,,0.00,WUHU21623XXSP,2013-05-25 18:01:00,
2013-05-25 11:06:00,70.7,46.4,30.04,South,180,0.0,0.0,42,0.00,,,0.00,WUHU21623XXSP,2013-05-25 18:06:00,
2013-05-25 11:11:00,70.9,46.4,30.03,WSW,247,4.0,4.0,42,0.00,,,0.00,WUHU21623XXSP,2013-05-25 18:11:00,
2013-05-25 11:16:00,71.4,47.1,30.04,SSE,157,0.0,4.0,42,0.00,,,0.00,WUHU21623XXSP,2013-05-25 18:16:00,
2013-05-25 11:21:00,71.8,46.8,30.03,South,180,0.0,0.0,41,0.00,,,0.00,WUHU21623XXSP,2013-05-25 18:21:00,
2013-05-25 11:26:00,72.1,47.1,30.04,South,180,0.0,0.0,41,0.00,,,0.00,WUHU21623XXSP,2013-05-25 18:26:00,
2013-05-25 11:31:00,72.9,47.2,30.04,WSW,247,0.0,0.0,40,0.00,,,0.00,WUHU21623XXSP,2013-05-25 18:31:00,
2013-05-25 11:36:00,73.2,47.3,30.04,SSE,157,3.8,3.8,40,0.00,,,0.00,WUHU21623XXSP,2013-05-25 18:36:00,
2013-05-25 11:42:00,73.2,46.7,30.04,North,0,0.0,0.0,39,0.00,,,0.00,WUHU21623XXSP,2013-05-25 18:42:00,
2013-05-25 11:47:00,73.6,47.1,30.04,North,0,0.0,0.0,39,0.00,,,0.00,WUHU21623XXSP,2013-05-25 18:47:00,
2013-05-25 11:52:00,73.8,47.2,30.04,North,0,0.0,0.0,39,0.00,,,0.00,WUHU21623XXSP,2013-05-25 18:52:00,
2013-05-25 11:57:00,74.3,46.8,30.04,SW,225,0.0,0.0,38,0.00,,,0.00,WUHU21623XXSP,2013-05-25 18:57:00,
2013-05-25 12:02:00,74.5,46.4,30.04,SW,225,0.0,0.0,37,0.00,,,0.00,WUHU21623XXSP,2013-05-25 19:02:00,
2013-05-25 12:07:00,74.3,46.2,30.04,WSW,247,0.0,0.0,37,0.00,,,0.00,WUHU21623XXSP,2013-05-25 19:07:00,
2013-05-25 12:12:00,74.1,46.0,30.04,SW,225,0.0,0.0,37,0.00,,,0.00,WUHU21623XXSP,2013-05-25 19:12:00,
2013-05-25 12:17:00,74.1,46.8,30.04,SE,135,2.0,2.0,38,0.00,,,0.00,WUHU21623XXSP,2013-05-25 19:17:00,
2013-05-25 12:22:00,74.5,47.1,30.04,SSW,202,0.0,2.0,38,0.00,,,0.00,WUHU21623XXSP,2013-05-25 19:22:00,
2013-05-25 12:27:00,74.8,46.7,30.03,SW,225,0.0,0.0,37,0.00,,,0.00,WUHU21623XXSP,2013-05-25 19:27:00,
2013-05-25 12:32:00,74.8,46.7,30.03,WSW,247,1.8,1.8,37,0.00,,,0.00,WUHU21623XXSP,2013-05-25 19:32:00,
2013-05-25 12:37:00,75.4,47.0,30.04,SW,225,0.0,1.8,36,0.00,,,0.00,WUHU21623XXSP,2013-05-25 19:37:00,
2013-05-25 12:42:00,75.4,46.4,30.03,SSW,202,0.0,0.0,36,0.00,,,0.00,WUHU21623XXSP,2013-05-25 19:42:00,
2013-05-25 12:47:00,75.2,46.3,30.03,SSE,157,0.0,0.0,36,0.00,,,0.00,WUHU21623XXSP,2013-05-25 19:47:00,
2013-05-25 12:52:00,75.4,46.4,30.03,SSE,157,0.0,0.0,36,0.00,,,0.00,WUHU21623XXSP,2013-05-25 19:52:00,
2013-05-25 12:57:00,75.4,46.4,30.03,West,270,6.7,6.7,36,0.00,,,0.00,WUHU21623XXSP,2013-05-25 19:57:00,
2013-05-25 13:02:00,75.7,46.7,30.04,SW,225,3.4,6.7,36,0.00,,,0.00,WUHU21623XXSP,2013-05-25 20:02:00,
2013-05-25 13:07:00,75.7,46.0,30.03,SSE,157,0.0,3.4,35,0.00,,,0.00,WUHU21623XXSP,2013-05-25 20:07:00,
2013-05-25 13:12:00,75.7,46.7,30.03,North,0,0.0,0.0,36,0.00,,,0.00,WUHU21623XXSP,2013-05-25 20:12:00,
2013-05-25 13:17:00,75.9,46.9,30.03,North,0,0.0,0.0,36,0.00,,,0.00,WUHU21623XXSP,2013-05-25 20:17:00,
2013-05-25 13:22:00,76.1,46.3,30.03,East,90,0.0,0.0,35,0.00,,,0.00,WUHU21623XXSP,2013-05-25 20:22:00,
2013-05-25 13:27:00,76.3,46.5,30.03,SSE,157,0.0,7.4,35,0.00,,,0.00,WUHU21623XXSP,2013-05-25 20:27:00,
2013-05-25 13:32:00,76.3,45.7,30.03,SSE,157,0.0,7.4,34,0.00,,,0.00,WUHU21623XXSP,2013-05-25 20:32:00,
2013-05-25 13:37:00,76.3,45.7,30.03,SE,135,0.0,0.0,34,0.00,,,0.00,WUHU21623XXSP,2013-05-25 20:37:00,
2013-05-25 13:42:00,76.5,45.9,30.02,SW,225,0.0,0.0,34,0.00,,,0.00,WUHU21623XXSP,2013-05-25 20:42:00,
2013-05-25 13:47:00,76.6,46.8,30.02,WNW,292,0.0,0.0,35,0.00,,,0.00,WUHU21623XXSP,2013-05-25 20:47:00,
2013-05-25 13:52:00,76.8,47.0,30.02,South,180,0.0,0.0,35,0.00,,,0.00,WUHU21623XXSP,2013-05-25 20:52:00,
2013-05-25 13:57:00,76.8,47.0,30.02,South,180,0.0,0.0,35,0.00,,,0.00,WUHU21623XXSP,2013-05-25 20:57:00,
2013-05-25 14:02:00,77.2,46.5,30.02,SSE,157,0.0,0.4,34,0.00,,,0.00,WUHU21623XXSP,2013-05-25 21:02:00,
2013-05-25 14:07:00,77.4,45.9,30.02,SSW,202,0.0,0.4,33,0.00,,,0.00,WUHU21623XXSP,2013-05-25 21:07:00,
2013-05-25 14:12:00,77.4,45.9,30.02,SSW,202,0.0,0.0,33,0.00,,,0.00,WUHU21623XXSP,2013-05-25 21:12:00,
2013-05-25 14:17:00,77.5,46.0,30.02,SSW,202,0.0,0.0,33,0.00,,,0.00,WUHU21623XXSP,2013-05-25 21:17:00,
2013-05-25 14:22:00,77.7,46.2,30.03,WSW,247,0.0,0.0,33,0.00,,,0.00,WUHU21623XXSP,2013-05-25 21:22:00,
2013-05-25 14:27:00,77.7,46.2,30.03,SE,135,0.0,0.0,33,0.00,,,0.00,WUHU21623XXSP,2013-05-25 21:27:00,
2013-05-25 14:32:00,77.5,46.0,30.02,SSW,202,0.0,0.0,33,0.00,,,0.00,WUHU21623XXSP,2013-05-25 21:32:00,
2013-05-25 14:37:00,77.5,46.0,30.02,SSW,202,0.0,5.6,33,0.00,,,0.00,WUHU21623XXSP,2013-05-25 21:37:00,
2013-05-25 14:42:00,77.5,46.0,30.02,WSW,247,0.0,5.6,33,0.00,,,0.00,WUHU21623XXSP,2013-05-25 21:42:00,
2013-05-25 14:47:00,77.4,45.9,30.03,West,270,2.9,3.8,33,0.00,,,0.00,WUHU21623XXSP,2013-05-25 21:47:00,
2013-05-25 14:52:00,77.2,45.8,30.03,SSW,202,0.0,7.6,33,0.00,,,0.00,WUHU21623XXSP,2013-05-25 21:52:00,
2013-05-25 14:57:00,76.8,45.4,30.03,SSW,202,0.0,7.6,33,0.00,,,0.00,WUHU21623XXSP,2013-05-25 21:57:00,
2013-05-25 15:02:00,76.8,45.4,30.03,SSW,202,0.0,0.0,33,0.00,,,0.00,WUHU21623XXSP,2013-05-25 22:02:00,
2013-05-25 15:07:00,77.0,45.6,30.03,SW,225,0.0,0.0,33,0.00,,,0.00,WUHU21623XXSP,2013-05-25 22:07:00,
2013-05-25 15:12:00,77.0,45.6,30.02,WNW,292,5.1,5.1,33,0.00,,,0.00,WUHU21623XXSP,2013-05-25 22:12:00,
2013-05-25 15:17:00,76.8,45.4,30.03,SSW,202,8.1,8.1,33,0.00,,,0.00,WUHU21623XXSP,2013-05-25 22:17:00,
2013-05-25 15:22:00,76.8,45.4,30.03,WSW,247,0.0,8.1,33,0.00,,,0.00,WUHU21623XXSP,2013-05-25 22:22:00,
2013-05-25 15:27:00,76.8,45.4,30.03,SSE,157,0.0,0.0,33,0.00,,,0.00,WUHU21623XXSP,2013-05-25 22:27:00,
2013-05-25 15:32:00,76.6,45.3,30.03,SSW,202,0.0,0.0,33,0.00,,,0.00,WUHU21623XXSP,2013-05-25 22:32:00,
2013-05-25 15:37:00,76.3,45.0,30.03,South,180,7.8,7.8,33,0.00,,,0.00,WUHU21623XXSP,2013-05-25 22:37:00,
2013-05-25 15:42:00,76.1,45.6,30.03,SE,135,0.0,7.8,34,0.00,,,0.00,WUHU21623XXSP,2013-05-25 22:42:00,
2013-05-25 15:47:00,76.1,45.6,30.02,North,0,0.0,0.0,34,0.00,,,0.00,WUHU21623XXSP,2013-05-25 22:47:00,
2013-05-25 15:52:00,75.9,45.4,30.02,North,0,0.0,0.0,34,0.00,,,0.00,WUHU21623XXSP,2013-05-25 22:52:00,
2013-05-25 15:57:00,75.7,45.2,30.02,North,0,0.0,0.0,34,0.00,,,0.00,WUHU21623XXSP,2013-05-25 22:57:00,
2013-05-25 16:02:00,75.7,45.2,30.02,NW,315,0.0,3.1,34,0.00,,,0.00,WUHU21623XXSP,2013-05-25 23:02:00,
2013-05-25 16:07:00,75.7,45.2,30.03,WSW,247,0.0,3.1,34,0.00,,,0.00,WUHU21623XXSP,2013-05-25 23:07:00,
2013-05-25 16:12:00,75.4,44.9,30.03,SSW,202,0.0,0.0,34,0.00,,,0.00,WUHU21623XXSP,2013-05-25 23:12:00,
2013-05-25 16:17:00,74.5,43.3,30.03,SW,225,3.8,3.8,33,0.00,,,0.00,WUHU21623XXSP,2013-05-25 23:17:00,
2013-05-25 16:22:00,73.9,42.9,30.02,NE,45,0.0,3.8,33,0.00,,,0.00,WUHU21623XXSP,2013-05-25 23:22:00,
2013-05-25 16:27:00,73.2,43.0,30.02,West,270,0.0,0.0,34,0.00,,,0.00,WUHU21623XXSP,2013-05-25 23:27:00,
2013-05-25 16:32:00,73.2,43.0,30.02,NE,45,0.0,6.3,34,0.00,,,0.00,WUHU21623XXSP,2013-05-25 23:32:00,
2013-05-25 16:37:00,72.7,42.5,30.03,NW,315,0.0,6.3,34,0.00,,,0.00,WUHU21623XXSP,2013-05-25 23:37:00,
2013-05-25 16:42:00,72.0,41.9,30.03,SE,135,0.0,3.4,34,0.00,,,0.00,WUHU21623XXSP,2013-05-25 23:42:00,
2013-05-25 16:47:00,71.8,42.5,30.02,WSW,247,0.0,3.4,35,0.00,,,0.00,WUHU21623XXSP,2013-05-25 23:47:00,
2013-05-25 16:52:00,71.6,42.4,30.02,NW,315,0.0,0.0,35,0.00,,,0.00,WUHU21623XXSP,2013-05-25 23:52:00,
2013-05-25 16:57:00,71.4,42.9,30.03,SSW,202,0.0,0.0,36,0.00,,,0.00,WUHU21623XXSP,2013-05-25 23:57:00,
2013-05-25 17:02:00,71.4,42.9,30.03,SW,225,0.4,0.4,36,0.00,,,0.00,WUHU21623XXSP,2013-05-26 00:02:00,
2013-05-25 17:07:00,71.4,43.7,30.03,SW,225,0.0,0.4,37,0.00,,,0.00,WUHU21623XXSP,2013-05-26 00:07:00,
2013-05-25 17:13:00,70.9,44.7,30.03,NNW,337,3.4,3.4,39,0.00,,,0.00,WUHU21623XXSP,2013-05-26 00:13:00,
2013-05-25 17:18:00,70.9,44.7,30.04,WSW,247,0.0,3.4,39,0.00,,,0.00,WUHU21623XXSP,2013-05-26 00:18:00,
2013-05-25 17:26:00,70.0,43.8,30.04,North,0,0.0,0.0,39,0.00,,,0.00,WUHU21623XXSP,2013-05-26 00:26:00,
2013-05-25 17:31:00,69.6,43.5,30.04,North,0,0.0,0.0,39,0.00,,,0.00,WUHU21623XXSP,2013-05-26 00:31:00,
2013-05-25 17:36:00,69.1,41.9,30.04,North,0,0.0,0.0,38,0.00,,,0.00,WUHU21623XXSP,2013-05-26 00:36:00,
2013-05-25 17:41:00,68.4,41.8,30.05,SW,225,8.9,8.9,38,0.00,,,0.00,WUHU21623XXSP,2013-05-26 00:41:00,
2013-05-25 17:46:00,68.2,42.2,30.05,SW,225,8.7,8.9,39,0.00,,,0.00,WUHU21623XXSP,2013-05-26 00:46:00,
2013-05-25 17:51:00,67.6,41.7,30.04,SSE,157,0.0,8.7,39,0.00,,,0.00,WUHU21623XXSP,2013-05-26 00:51:00,
2013-05-25 17:58:00,66.9,42.4,30.04,SW,225,0.0,0.0,41,0.00,,,0.00,WUHU21623XXSP,2013-05-26 00:58:00,
2013-05-25 18:03:00,66.9,43.0,30.04,SW,225,0.0,0.0,42,0.00,,,0.00,WUHU21623XXSP,2013-05-26 01:03:00,
2013-05-25 18:08:00,66.7,43.4,30.04,SW,225,0.0,0.0,43,0.00,,,0.00,WUHU21623XXSP,2013-05-26 01:08:00,
2013-05-25 18:13:00,66.6,43.3,30.04,SW,225,5.8,5.8,43,0.00,,,0.00,WUHU21623XXSP,2013-05-26 01:13:00,
2013-05-25 18:18:00,66.0,43.4,30.04,WSW,247,0.0,5.8,44,0.00,,,0.00,WUHU21623XXSP,2013-05-26 01:18:00,
2013-05-25 18:26:00,65.8,44.0,30.04,WSW,247,5.4,5.4,45,0.00,,,0.00,WUHU21623XXSP,2013-05-26 01:26:00,
2013-05-25 18:31:00,66.0,44.0,30.04,SSW,202,0.0,5.4,45,0.00,,,0.00,WUHU21623XXSP,2013-05-26 01:31:00,
2013-05-25 18:36:00,65.7,44.2,30.04,West,270,0.0,0.0,46,0.00,,,0.00,WUHU21623XXSP,2013-05-26 01:36:00,
2013-05-25 18:41:00,65.5,44.6,30.04,North,0,0.0,0.0,47,0.00,,,0.00,WUHU21623XXSP,2013-05-26 01:41:00,
2013-05-25 18:46:00,64.9,44.1,30.04,SSW,202,0.0,0.0,47,0.00,,,0.00,WUHU21623XXSP,2013-05-26 01:46:00,
2013-05-25 18:52:00,64.2,44.2,30.04,WSW,247,6.9,6.9,49,0.00,,,0.00,WUHU21623XXSP,2013-05-26 01:52:00,
2013-05-25 18:57:00,64.0,44.4,30.04,South,180,0.0,6.9,49,0.00,,,0.00,WUHU21623XXSP,2013-05-26 01:57:00,
2013-05-25 19:02:00,63.5,44.5,30.04,SSE,157,0.0,0.0,50,0.00,,,0.00,WUHU21623XXSP,2013-05-26 02:02:00,
2013-05-25 19:07:00,63.1,44.2,30.04,West,270,0.0,0.0,50,0.00,,,0.00,WUHU21623XXSP,2013-05-26 02:07:00,
2013-05-25 19:12:00,62.4,44.3,30.04,WSW,247,0.0,0.0,51,0.00,,,0.00,WUHU21623XXSP,2013-05-26 02:12:00,
2013-05-25 19:17:00,62.2,43.9,30.04,WSW,247,0.0,0.0,51,0.00,,,0.00,WUHU21623XXSP,2013-05-26 02:17:00,
2013-05-25 19:22:00,61.7,43.9,30.04,North,0,0.0,0.0,52,0.00,,,0.00,WUHU21623XXSP,2013-05-26 02:22:00,
2013-05-25 19:27:00,61.5,44.2,30.04,North,0,0.0,0.0,53,0.00,,,0.00,WUHU21623XXSP,2013-05-26 02:27:00,
2013-05-25 19:32:00,61.2,44.0,30.04,North,0,0.0,0.0,53,0.00,,,0.00,WUHU21623XXSP,2013-05-26 02:32:00,
2013-05-25 19:37:00,60.6,43.8,30.04,WSW,247,0.0,0.0,54,0.00,,,0.00,WUHU21623XXSP,2013-05-26 02:37:00,
2013-05-25 19:42:00,60.4,43.7,30.05,SW,225,0.0,0.0,54,0.00,,,0.00,WUHU21623XXSP,2013-05-26 02:42:00,
2013-05-25 19:47:00,60.4,43.7,30.05,WSW,247,0.0,0.0,54,0.00,,,0.00,WUHU21623XXSP,2013-05-26 02:47:00,
2013-05-25 19:52:00,60.1,43.8,30.05,SW,225,0.0,0.0,55,0.00,,,0.00,WUHU21623XXSP,2013-05-26 02:52:00,
2013-05-25 19:58:00,59.7,44.0,30.05,NNW,337,0.0,0.0,56,0.00,,,0.00,WUHU21623XXSP,2013-05-26 02:58:00,
2013-05-25 20:03:00,59.5,44.3,30.05,SW,225,0.0,0.0,57,0.00,,,0.00,WUHU21623XXSP,2013-05-26 03:03:00,
2013-05-25 20:08:00,59.4,44.5,30.05,West,270,0.0,0.0,58,0.00,,,0.00,WUHU21623XXSP,2013-05-26 03:08:00,
2013-05-25 20:13:00,58.8,44.0,30.05,NE,45,0.0,0.0,58,0.00,,,0.00,WUHU21623XXSP,2013-05-26 03:13:00,
2013-05-25 20:18:00,58.8,44.0,30.05,WNW,292,0.0,0.0,58,0.00,,,0.00,WUHU21623XXSP,2013-05-26 03:18:00,
2013-05-25 20:23:00,58.5,44.2,30.06,WSW,247,0.0,0.0,59,0.00,,,0.00,WUHU21623XXSP,2013-05-26 03:23:00,
2013-05-25 20:32:00,57.7,44.0,30.05,SSE,157,0.0,0.0,60,0.00,,,0.00,WUHU21623XXSP,2013-05-26 03:32:00,
2013-05-25 20:37:00,57.4,44.1,30.05,South,180,0.0,0.0,61,0.00,,,0.00,WUHU21623XXSP,2013-05-26 03:37:00,
2013-05-25 20:42:00,57.0,44.1,30.05,South,180,0.0,0.0,62,0.00,,,0.00,WUHU21623XXSP,2013-05-26 03:42:00,
2013-05-25 20:47:00,57.0,44.1,30.05,South,180,0.0,0.0,62,0.00,,,0.00,WUHU21623XXSP,2013-05-26 03:47:00,
2013-05-25 20:52:00,56.7,44.2,30.05,SSE,157,0.0,0.0,63,0.00,,,0.00,WUHU21623XXSP,2013-05-26 03:52:00,
2013-05-25 20:57:00,56.5,44.0,30.05,SSE,157,0.0,0.0,63,0.00,,,0.00,WUHU21623XXSP,2013-05-26 03:57:00,
2013-05-25 21:01:00,55.9,44.1,30.06,SSE,157,0.0,0.0,64,0.00,,,0.00,WUHU21623XXSP,2013-05-26 04:01:00,
2013-05-25 21:02:00,55.9,44.1,30.06,SSE,157,0.0,0.0,64,0.00,,,0.00,WUHU21623XXSP,2013-05-26 04:02:00,
2013-05-25 21:07:00,55.9,44.3,30.06,SSE,157,0.0,0.0,65,0.00,,,0.00,WUHU21623XXSP,2013-05-26 04:07:00,
2013-05-25 21:11:00,55.8,44.1,30.06,SSE,157,0.0,0.0,65,0.00,,,0.00,WUHU21623XXSP,2013-05-26 04:11:00,
2013-05-25 21:16:00,55.4,44.2,30.06,SSE,157,0.0,0.0,66,0.00,,,0.00,WUHU21623XXSP,2013-05-26 04:16:00,
2013-05-25 21:21:00,55.2,44.0,30.06,SSE,157,0.0,0.0,66,0.00,,,0.00,WUHU21623XXSP,2013-05-26 04:21:00,
2013-05-25 21:28:00,55.0,44.3,30.06,SSE,157,0.0,0.0,67,0.00,,,0.00,WUHU21623XXSP,2013-05-26 04:28:00,
2013-05-25 21:33:00,54.7,44.1,30.06,SSE,157,0.0,0.0,67,0.00,,,0.00,WUHU21623XXSP,2013-05-26 04:33:00,
2013-05-25 21:38:00,54.7,43.9,30.06,SSE,157,0.0,0.0,67,0.00,,,0.00,WUHU21623XXSP,2013-05-26 04:38:00,
2013-05-25 21:43:00,54.5,44.1,30.06,North,0,0.0,0.0,68,0.00,,,0.00,WUHU21623XXSP,2013-05-26 04:43:00,
2013-05-25 21:48:00,54.3,44.0,30.07,North,0,0.0,0.0,68,0.00,,,0.00,WUHU21623XXSP,2013-05-26 04:48:00,
2013-05-25 21:53:00,54.1,44.2,30.07,North,0,0.0,0.0,69,0.00,,,0.00,WUHU21623XXSP,2013-05-26 04:53:00,
2013-05-25 21:58:00,54.1,44.2,30.08,SSE,157,0.0,0.0,69,0.00,,,0.00,WUHU21623XXSP,2013-05-26 04:58:00,
2013-05-25 22:03:00,53.8,44.2,30.07,SSE,157,0.0,0.0,70,0.00,,,0.00,WUHU21623XXSP,2013-05-26 05:03:00,
2013-05-25 22:09:00,53.8,44.2,30.07,SSE,157,0.0,0.0,70,0.00,,,0.00,WUHU21623XXSP,2013-05-26 05:09:00,
2013-05-25 22:15:00,53.4,44.2,30.08,SSE,157,0.0,0.0,71,0.00,,,0.00,WUHU21623XXSP,2013-05-26 05:15:00,
2013-05-25 22:20:00,53.4,44.2,30.08,SSE,157,0.0,0.0,71,0.00,,,0.00,WUHU21623XXSP,2013-05-26 05:20:00,
2013-05-25 22:25:00,53.4,44.2,30.08,SSE,157,0.0,0.0,71,0.00,,,0.00,WUHU21623XXSP,2013-05-26 05:25:00,
2013-05-25 22:30:00,53.2,44.4,30.08,SSE,157,0.0,0.0,72,0.00,,,0.00,WUHU21623XXSP,2013-05-26 05:30:00,
2013-05-25 22:35:00,53.2,44.4,30.08,SSE,157,0.0,0.0,72,0.00,,,0.00,WUHU21623XXSP,2013-05-26 05:35:00,
2013-05-25 22:40:00,52.9,44.1,30.08,SSE,157,0.0,0.0,72,0.00,,,0.00,WUHU21623XXSP,2013-05-26 05:40:00,
2013-05-25 22:45:00,52.9,44.5,30.08,SSE,157,0.0,0.0,73,0.00,,,0.00,WUHU21623XXSP,2013-05-26 05:45:00,
2013-05-25 22:50:00,52.7,44.3,30.08,SSE,157,0.0,0.0,73,0.00,,,0.00,WUHU21623XXSP,2013-05-26 05:50:00,
2013-05-25 22:55:00,52.5,44.1,30.08,SSE,157,0.0,0.0,73,0.00,,,0.00,WUHU21623XXSP,2013-05-26 05:55:00,
2013-05-25 23:00:00,52.5,44.5,30.08,SSE,157,0.0,0.0,74,0.00,,,0.00,WUHU21623XXSP,2013-05-26 06:00:00,
2013-05-25 23:05:00,52.3,44.3,30.08,SSE,157,0.0,0.0,74,0.00,,,0.00,WUHU21623XXSP,2013-05-26 06:05:00,
2013-05-25 23:10:00,52.3,44.3,30.08,SSE,157,0.0,0.0,74,0.00,,,0.00,WUHU21623XXSP,2013-05-26 06:10:00,
2013-05-25 23:15:00,52.2,44.5,30.08,SSE,157,0.0,0.0,75,0.00,,,0.00,WUHU21623XXSP,2013-05-26 06:15:00,
2013-05-25 23:20:00,52.0,44.3,30.08,SSE,157,0.0,0.0,75,0.00,,,0.00,WUHU21623XXSP,2013-05-26 06:20:00,
2013-05-25 23:25:00,52.0,44.3,30.08,SSE,157,0.0,0.0,75,0.00,,,0.00,WUHU21623XXSP,2013-05-26 06:25:00,
2013-05-25 23:30:00,51.8,44.1,30.08,SSE,157,0.0,0.0,75,0.00,,,0.00,WUHU21623XXSP,2013-05-26 06:30:00,
2013-05-25 23:35:00,51.6,44.0,30.09,SSE,157,0.0,0.0,75,0.00,,,0.00,WUHU21623XXSP,2013-05-26 06:35:00,
2013-05-25 23:40:00,51.6,44.0,30.09,SSE,157,0.0,0.0,75,0.00,,,0.00,WUHU21623XXSP,2013-05-26 06:40:00,
2013-05-25 23:45:00,51.4,44.1,30.08,SSE,157,0.0,0.0,76,0.00,,,0.00,WUHU21623XXSP,2013-05-26 06:45:00,
2013-05-25 23:50:00,51.3,44.0,30.08,SSE,157,0.0,0.0,76,0.00,,,0.00,WUHU21623XXSP,2013-05-26 06:50:00,
2013-05-25 23:55:00,51.1,44.0,30.09,SSE,157,0.0,0.0,76,0.00,,,0.00,WUHU21623XXSP,2013-05-26 06:55:00,